createdAt,value
2016-12-26T00:00:49.511Z,0
2016-12-26T00:01:48.931Z,0
2016-12-26T00:02:49.568Z,0
2016-12-26T00:03:49.617Z,0
2016-12-26T00:04:49.341Z,0
2016-12-26T00:05:49.958Z,0
2016-12-26T00:06:49.383Z,0
2016-12-26T00:07:49.996Z,0
2016-12-26T00:08:50.036Z,0
2016-12-26T00:09:49.757Z,0
2016-12-26T00:10:50.085Z,0
2016-12-26T00:11:49.507Z,0
2016-12-26T00:12:49.239Z,0
2016-12-26T00:13:49.876Z,0
2016-12-26T00:14:49.596Z,0
2016-12-26T00:15:49.939Z,0
2016-12-26T00:16:50.258Z,0
2016-12-26T00:17:49.983Z,0
2016-12-26T00:18:49.396Z,0
2016-12-26T00:19:49.740Z,0
2016-12-26T00:20:50.061Z,0
2016-12-26T00:21:49.494Z,0
2016-12-26T00:22:50.151Z,0
2016-12-26T00:23:50.468Z,0
2016-12-26T00:24:50.176Z,0
2016-12-26T00:25:50.829Z,0
2016-12-26T00:26:50.834Z,0
2016-12-26T00:27:49.678Z,0
2016-12-26T00:28:49.996Z,0
2016-12-26T00:29:50.349Z,0
2016-12-26T00:30:50.648Z,0
2016-12-26T00:31:50.061Z,0
2016-12-26T00:32:50.099Z,0
2016-12-26T00:33:50.447Z,0
2016-12-26T00:34:50.155Z,0
2016-12-26T00:35:50.184Z,0
2016-12-26T00:36:50.509Z,0
2016-12-26T00:37:50.252Z,0
2016-12-26T00:38:50.270Z,0
2016-12-26T00:39:50.291Z,0
2016-12-26T00:40:50.932Z,0
2016-12-26T00:41:50.645Z,0
2016-12-26T00:42:50.381Z,0
2016-12-26T00:43:51.022Z,0
2016-12-26T00:44:50.759Z,0
2016-12-26T00:45:50.765Z,0
2016-12-26T00:46:50.484Z,0
2016-12-26T00:47:50.508Z,0
2016-12-26T00:48:50.858Z,0
2016-12-26T00:49:51.178Z,0
2016-12-26T00:50:50.310Z,0
2016-12-26T00:51:50.936Z,0
2016-12-26T00:52:51.265Z,0
2016-12-26T00:53:50.701Z,0
2016-12-26T00:54:50.730Z,0
2016-12-26T00:55:51.359Z,0
2016-12-26T00:56:51.060Z,0
2016-12-26T00:57:51.396Z,0
2016-12-26T00:58:50.823Z,0
2016-12-26T00:59:50.853Z,0
2016-12-26T01:00:50.891Z,0
2016-12-26T01:01:51.503Z,0
2016-12-26T01:02:51.236Z,0
2016-12-26T01:03:51.309Z,0
2016-12-26T01:04:51.910Z,0
2016-12-26T01:05:51.926Z,0
2016-12-26T01:06:51.363Z,0
2016-12-26T01:07:51.368Z,0
2016-12-26T01:08:51.109Z,0
2016-12-26T01:09:51.737Z,0
2016-12-26T01:10:51.494Z,0
2016-12-26T01:11:51.795Z,0
2016-12-26T01:12:51.508Z,0
2016-12-26T01:13:51.560Z,0
2016-12-26T01:14:52.172Z,0
2016-12-26T01:15:51.005Z,0
2016-12-26T01:16:52.238Z,0
2016-12-26T01:17:51.960Z,0
2016-12-26T01:18:51.685Z,0
2016-12-26T01:19:51.712Z,0
2016-12-26T01:20:51.733Z,0
2016-12-26T01:21:51.462Z,0
2016-12-26T01:22:51.495Z,0
2016-12-26T01:23:51.836Z,0
2016-12-26T01:24:52.177Z,0
2016-12-26T01:25:51.573Z,0
2016-12-26T01:26:51.893Z,0
2016-12-26T01:27:52.534Z,0
2016-12-26T01:28:51.664Z,0
2016-12-26T01:29:51.687Z,0
2016-12-26T01:30:52.632Z,0
2016-12-26T01:31:52.052Z,0
2016-12-26T01:32:52.075Z,0
2016-12-26T01:33:52.106Z,0
2016-12-26T01:34:52.423Z,0
2016-12-26T01:35:51.840Z,0
2016-12-26T01:36:51.872Z,0
2016-12-26T01:37:51.614Z,0
2016-12-26T01:38:51.938Z,0
2016-12-26T01:39:52.563Z,0
2016-12-26T01:40:52.592Z,0
2016-12-26T01:41:52.916Z,0
2016-12-26T01:42:52.051Z,0
2016-12-26T01:43:52.680Z,0
2016-12-26T01:44:52.403Z,0
2016-12-26T01:45:52.723Z,0
2016-12-26T01:46:52.468Z,0
2016-12-26T01:47:51.876Z,0
2016-12-26T01:48:52.230Z,0
2016-12-26T01:49:52.570Z,0
2016-12-26T01:50:51.979Z,0
2016-12-26T01:51:52.911Z,0
2016-12-26T01:52:52.621Z,0
2016-12-26T01:53:52.041Z,0
2016-12-26T01:54:52.686Z,0
2016-12-26T01:55:53.002Z,0
2016-12-26T01:56:52.439Z,0
2016-12-26T01:57:52.756Z,0
2016-12-26T01:58:52.188Z,0
2016-12-26T01:59:52.829Z,0
2016-12-26T02:00:52.862Z,0
2016-12-26T02:01:52.879Z,0
2016-12-26T02:02:52.908Z,0
2016-12-26T02:03:52.624Z,0
2016-12-26T02:04:52.952Z,0
2016-12-26T02:05:53.285Z,0
2016-12-26T02:06:53.042Z,0
2016-12-26T02:07:53.043Z,0
2016-12-26T02:08:52.767Z,0
2016-12-26T02:09:52.805Z,0
2016-12-26T02:10:53.437Z,0
2016-12-26T02:11:53.458Z,0
2016-12-26T02:12:53.479Z,0
2016-12-26T02:13:53.195Z,0
2016-12-26T02:14:52.923Z,0
2016-12-26T02:15:52.965Z,0
2016-12-26T02:16:52.994Z,0
2016-12-26T02:17:53.010Z,0
2016-12-26T02:18:53.646Z,0
2016-12-26T02:19:52.766Z,0
2016-12-26T02:20:53.408Z,0
2016-12-26T02:21:53.429Z,0
2016-12-26T02:22:53.150Z,0
2016-12-26T02:23:53.778Z,0
2016-12-26T02:24:53.219Z,0
2016-12-26T02:25:53.240Z,0
2016-12-26T02:26:53.248Z,0
2016-12-26T02:27:53.597Z,0
2016-12-26T02:28:53.330Z,0
2016-12-26T02:29:53.650Z,0
2016-12-26T02:30:53.383Z,0
2016-12-26T02:31:53.703Z,0
2016-12-26T02:32:53.420Z,0
2016-12-26T02:33:53.449Z,0
2016-12-26T02:34:54.088Z,0
2016-12-26T02:35:53.503Z,0
2016-12-26T02:36:53.235Z,0
2016-12-26T02:37:53.583Z,0
2016-12-26T02:38:53.299Z,0
2016-12-26T02:39:53.932Z,0
2016-12-26T02:40:54.269Z,0
2016-12-26T02:41:53.661Z,0
2016-12-26T02:42:54.306Z,0
2016-12-26T02:43:53.750Z,0
2016-12-26T02:44:53.743Z,0
2016-12-26T02:45:53.788Z,0
2016-12-26T02:46:53.812Z,0
2016-12-26T02:47:54.161Z,0
2016-12-26T02:48:54.178Z,0
2016-12-26T02:49:54.506Z,0
2016-12-26T02:50:54.527Z,0
2016-12-26T02:51:54.553Z,0
2016-12-26T02:52:53.968Z,0
2016-12-26T02:53:54.000Z,0
2016-12-26T02:54:54.037Z,0
2016-12-26T02:55:54.374Z,0
2016-12-26T02:56:54.098Z,0
2016-12-26T02:57:54.111Z,0
2016-12-26T02:58:54.140Z,0
2016-12-26T02:59:55.084Z,0
2016-12-26T03:00:53.880Z,0
2016-12-26T03:01:54.218Z,0
2016-12-26T03:02:53.938Z,0
2016-12-26T03:03:54.271Z,0
2016-12-26T03:04:54.908Z,0
2016-12-26T03:05:54.644Z,0
2016-12-26T03:06:54.693Z,0
2016-12-26T03:07:54.998Z,0
2016-12-26T03:08:55.022Z,0
2016-12-26T03:09:54.427Z,0
2016-12-26T03:10:54.774Z,0
2016-12-26T03:11:54.796Z,0
2016-12-26T03:12:54.821Z,0
2016-12-26T03:13:54.578Z,0
2016-12-26T03:14:54.882Z,0
2016-12-26T03:15:54.603Z,0
2016-12-26T03:16:54.645Z,0
2016-12-26T03:17:55.573Z,0
2016-12-26T03:18:54.985Z,0
2016-12-26T03:19:54.715Z,0
2016-12-26T03:20:54.742Z,0
2016-12-26T03:21:54.775Z,0
2016-12-26T03:22:54.800Z,0
2016-12-26T03:23:54.829Z,0
2016-12-26T03:24:55.166Z,0
2016-12-26T03:25:55.186Z,0
2016-12-26T03:26:55.815Z,0
2016-12-26T03:27:54.651Z,0
2016-12-26T03:28:55.565Z,0
2016-12-26T03:29:55.304Z,0
2016-12-26T03:30:55.318Z,0
2016-12-26T03:31:55.342Z,0
2016-12-26T03:32:55.083Z,0
2016-12-26T03:33:55.411Z,0
2016-12-26T03:34:55.133Z,0
2016-12-26T03:35:55.462Z,0
2016-12-26T03:36:55.802Z,0
2016-12-26T03:37:55.514Z,0
2016-12-26T03:38:55.839Z,0
2016-12-26T03:39:55.276Z,0
2016-12-26T03:40:55.289Z,0
2016-12-26T03:41:55.318Z,0
2016-12-26T03:42:55.974Z,0
2016-12-26T03:43:56.299Z,0
2016-12-26T03:44:55.409Z,0
2016-12-26T03:45:56.357Z,0
2016-12-26T03:46:56.066Z,0
2016-12-26T03:47:55.181Z,0
2016-12-26T03:48:55.816Z,0
2016-12-26T03:49:55.236Z,0
2016-12-26T03:50:56.165Z,0
2016-12-26T03:51:55.902Z,0
2016-12-26T03:52:55.627Z,0
2016-12-26T03:53:55.956Z,0
2016-12-26T03:54:56.296Z,0
2016-12-26T03:55:56.012Z,0
2016-12-26T03:56:56.029Z,0
2016-12-26T03:57:55.766Z,0
2016-12-26T03:58:55.486Z,0
2016-12-26T03:59:56.132Z,0
2016-12-26T04:00:55.845Z,0
2016-12-26T04:01:56.502Z,0
2016-12-26T04:02:56.514Z,0
2016-12-26T04:03:55.627Z,0
2016-12-26T04:04:56.565Z,0
2016-12-26T04:05:56.272Z,0
2016-12-26T04:06:55.705Z,0
2016-12-26T04:07:56.646Z,0
2016-12-26T04:08:56.071Z,0
2016-12-26T04:09:56.091Z,0
2016-12-26T04:10:55.848Z,0
2016-12-26T04:11:56.463Z,0
2016-12-26T04:12:56.478Z,0
2016-12-26T04:13:56.211Z,0
2016-12-26T04:14:56.223Z,0
2016-12-26T04:15:55.948Z,0
2016-12-26T04:16:56.585Z,0
2016-12-26T04:17:56.311Z,0
2016-12-26T04:18:56.641Z,0
2016-12-26T04:19:56.359Z,0
2016-12-26T04:20:56.704Z,0
2016-12-26T04:21:56.729Z,0
2016-12-26T04:22:57.362Z,0
2016-12-26T04:23:56.774Z,0
2016-12-26T04:24:56.196Z,0
2016-12-26T04:25:56.228Z,0
2016-12-26T04:26:56.872Z,0
2016-12-26T04:27:56.593Z,0
2016-12-26T04:28:56.617Z,0
2016-12-26T04:29:56.951Z,0
2016-12-26T04:30:56.375Z,0
2016-12-26T04:31:56.697Z,0
2016-12-26T04:32:56.417Z,0
2016-12-26T04:33:57.046Z,0
2016-12-26T04:34:56.782Z,0
2016-12-26T04:35:56.511Z,0
2016-12-26T04:36:57.448Z,0
2016-12-26T04:37:57.161Z,0
2016-12-26T04:38:57.201Z,0
2016-12-26T04:39:56.630Z,0
2016-12-26T04:40:57.564Z,0
2016-12-26T04:41:57.268Z,0
2016-12-26T04:42:57.293Z,0
2016-12-26T04:43:57.326Z,0
2016-12-26T04:44:57.049Z,0
2016-12-26T04:45:57.084Z,0
2016-12-26T04:46:57.420Z,0
2016-12-26T04:47:57.437Z,0
2016-12-26T04:48:57.785Z,0
2016-12-26T04:49:57.203Z,0
2016-12-26T04:50:57.832Z,0
2016-12-26T04:51:57.544Z,0
2016-12-26T04:52:57.576Z,0
2016-12-26T04:53:57.597Z,0
2016-12-26T04:54:57.326Z,0
2016-12-26T04:55:57.351Z,0
2016-12-26T04:56:58.000Z,0
2016-12-26T04:57:57.416Z,0
2016-12-26T04:58:58.055Z,0
2016-12-26T04:59:57.770Z,0
2016-12-26T05:00:58.395Z,0
2016-12-26T05:01:57.816Z,0
2016-12-26T05:02:57.241Z,0
2016-12-26T05:03:57.286Z,0
2016-12-26T05:04:57.906Z,0
2016-12-26T05:05:57.339Z,0
2016-12-26T05:06:57.352Z,0
2016-12-26T05:07:57.997Z,0
2016-12-26T05:08:57.702Z,0
2016-12-26T05:09:58.029Z,0
2016-12-26T05:10:57.764Z,0
2016-12-26T05:11:58.108Z,0
2016-12-26T05:12:58.137Z,0
2016-12-26T05:13:58.161Z,0
2016-12-26T05:14:58.490Z,0
2016-12-26T05:15:57.599Z,0
2016-12-26T05:16:58.848Z,0
2016-12-26T05:17:58.265Z,0
2016-12-26T05:18:57.674Z,0
2016-12-26T05:19:57.706Z,0
2016-12-26T05:20:58.371Z,0
2016-12-26T05:21:58.388Z,0
2016-12-26T05:22:58.401Z,0
2016-12-26T05:23:58.745Z,0
2016-12-26T05:24:58.758Z,0
2016-12-26T05:25:58.799Z,0
2016-12-26T05:26:58.508Z,0
2016-12-26T05:27:58.224Z,0
2016-12-26T05:28:58.873Z,0
2016-12-26T05:29:57.985Z,0
2016-12-26T05:30:58.623Z,0
2016-12-26T05:31:58.968Z,0
2016-12-26T05:32:58.676Z,0
2016-12-26T05:33:59.001Z,0
2016-12-26T05:34:58.734Z,0
2016-12-26T05:35:58.750Z,0
2016-12-26T05:36:58.810Z,0
2016-12-26T05:37:58.495Z,0
2016-12-26T05:38:58.546Z,0
2016-12-26T05:39:58.868Z,0
2016-12-26T05:40:58.595Z,0
2016-12-26T05:41:58.923Z,0
2016-12-26T05:42:58.956Z,0
2016-12-26T05:43:58.977Z,0
2016-12-26T05:44:59.009Z,0
2016-12-26T05:45:59.035Z,0
2016-12-26T05:46:58.755Z,0
2016-12-26T05:47:58.780Z,0
2016-12-26T05:48:58.812Z,0
2016-12-26T05:49:58.837Z,0
2016-12-26T05:50:58.870Z,0
2016-12-26T05:51:58.591Z,0
2016-12-26T05:52:59.224Z,0
2016-12-26T05:53:58.949Z,0
2016-12-26T05:54:59.583Z,0
2016-12-26T05:55:58.998Z,0
2016-12-26T05:56:59.314Z,0
2016-12-26T05:57:59.388Z,0
2016-12-26T05:58:59.376Z,0
2016-12-26T05:59:59.704Z,0
2016-12-26T06:00:59.454Z,0
2016-12-26T06:01:59.794Z,0
2016-12-26T06:02:59.815Z,0
2016-12-26T06:03:59.836Z,0
2016-12-26T06:04:59.244Z,0
2016-12-26T06:05:59.260Z,0
2016-12-26T06:06:59.029Z,0
2016-12-26T06:07:59.630Z,0
2016-12-26T06:08:59.355Z,0
2016-12-26T06:09:59.088Z,0
2016-12-26T06:10:59.728Z,0
2016-12-26T06:11:59.438Z,0
2016-12-26T06:12:59.779Z,0
2016-12-26T06:14:00.103Z,0
2016-12-26T06:15:00.140Z,0
2016-12-26T06:15:59.535Z,0
2016-12-26T06:16:59.565Z,0
2016-12-26T06:17:59.606Z,0
2016-12-26T06:18:59.936Z,0
2016-12-26T06:19:59.659Z,0
2016-12-26T06:20:59.381Z,0
2016-12-26T06:22:00.017Z,0
2016-12-26T06:23:00.662Z,0
2016-12-26T06:24:00.398Z,0
2016-12-26T06:25:00.411Z,0
2016-12-26T06:26:00.124Z,0
2016-12-26T06:26:59.861Z,0
2016-12-26T06:28:00.479Z,0
2016-12-26T06:29:00.210Z,0
2016-12-26T06:30:00.551Z,0
2016-12-26T06:30:59.963Z,0
2016-12-26T06:31:59.989Z,0
2016-12-26T06:33:00.018Z,0
2016-12-26T06:34:00.350Z,0
2016-12-26T06:35:00.395Z,0
2016-12-26T06:36:00.404Z,0
2016-12-26T06:37:00.120Z,0
2016-12-26T06:38:00.777Z,0
2016-12-26T06:38:59.881Z,0
2016-12-26T06:40:00.810Z,0
2016-12-26T06:41:00.235Z,0
2016-12-26T06:42:00.279Z,0
2016-12-26T06:43:00.308Z,0
2016-12-26T06:44:00.625Z,0
2016-12-26T06:45:00.361Z,0
2016-12-26T06:46:00.990Z,0
2016-12-26T06:47:00.435Z,0
2016-12-26T06:48:01.027Z,0
2016-12-26T06:49:01.373Z,0
2016-12-26T06:50:00.185Z,0
2016-12-26T06:51:00.820Z,0
2016-12-26T06:52:00.847Z,0
2016-12-26T06:53:00.264Z,0
2016-12-26T06:54:01.516Z,0
2016-12-26T06:55:00.641Z,0
2016-12-26T06:56:01.270Z,0
2016-12-26T06:57:00.979Z,0
2016-12-26T06:58:00.711Z,0
2016-12-26T06:59:01.344Z,0
2016-12-26T07:00:00.468Z,0
2016-12-26T07:01:00.489Z,0
2016-12-26T07:02:00.822Z,0
2016-12-26T07:03:01.178Z,0
2016-12-26T07:04:00.876Z,0
2016-12-26T07:05:00.912Z,0
2016-12-26T07:06:00.966Z,0
2016-12-26T07:07:00.966Z,0
2016-12-26T07:08:01.283Z,0
2016-12-26T07:09:00.707Z,0
2016-12-26T07:10:01.051Z,0
2016-12-26T07:11:01.373Z,0
2016-12-26T07:12:00.805Z,0
2016-12-26T07:13:01.433Z,0
2016-12-26T07:14:01.772Z,0
2016-12-26T07:15:01.491Z,0
2016-12-26T07:16:01.520Z,0
2016-12-26T07:17:01.542Z,0
2016-12-26T07:18:01.278Z,0
2016-12-26T07:19:02.219Z,0
2016-12-26T07:20:01.617Z,0
2016-12-26T07:21:01.035Z,0
2016-12-26T07:22:01.980Z,0
2016-12-26T07:23:01.699Z,0
2016-12-26T07:24:01.130Z,0
2016-12-26T07:25:01.782Z,0
2016-12-26T07:26:01.795Z,0
2016-12-26T07:27:01.820Z,0
2016-12-26T07:28:01.541Z,0
2016-12-26T07:29:01.278Z,0
2016-12-26T07:30:01.915Z,0
2016-12-26T07:31:01.923Z,0
2016-12-26T07:32:02.255Z,0
2016-12-26T07:33:02.284Z,0
2016-12-26T07:34:01.417Z,0
2016-12-26T07:35:01.438Z,0
2016-12-26T07:36:02.067Z,0
2016-12-26T07:37:01.791Z,0
2016-12-26T07:38:02.132Z,0
2016-12-26T07:39:02.149Z,0
2016-12-26T07:40:01.578Z,0
2016-12-26T07:41:01.908Z,0
2016-12-26T07:42:01.921Z,0
2016-12-26T07:43:01.959Z,0
2016-12-26T07:44:02.891Z,0
2016-12-26T07:45:01.713Z,0
2016-12-26T07:46:02.342Z,0
2016-12-26T07:47:02.976Z,0
2016-12-26T07:48:02.107Z,0
2016-12-26T07:49:02.464Z,0
2016-12-26T07:50:02.465Z,0
2016-12-26T07:51:01.889Z,0
2016-12-26T07:52:02.522Z,0
2016-12-26T07:53:02.543Z,0
2016-12-26T07:54:02.577Z,0
2016-12-26T07:55:02.292Z,0
2016-12-26T07:56:02.329Z,0
2016-12-26T07:57:02.349Z,0
2016-12-26T07:58:03.003Z,0
2016-12-26T07:59:02.720Z,0
2016-12-26T08:00:02.740Z,0
2016-12-26T08:01:02.496Z,0
2016-12-26T08:02:02.198Z,0
2016-12-26T08:03:02.828Z,0
2016-12-26T08:04:03.471Z,0
2016-12-26T08:05:02.872Z,0
2016-12-26T08:06:02.904Z,0
2016-12-26T08:07:02.646Z,0
2016-12-26T08:08:02.657Z,0
2016-12-26T08:09:02.994Z,0
2016-12-26T08:10:03.023Z,0
2016-12-26T08:11:03.052Z,0
2016-12-26T08:12:03.692Z,0
2016-12-26T08:13:03.109Z,0
2016-12-26T08:14:03.447Z,0
2016-12-26T08:15:03.458Z,0
2016-12-26T08:16:03.187Z,0
2016-12-26T08:17:02.596Z,0
2016-12-26T08:18:03.541Z,0
2016-12-26T08:19:02.971Z,0
2016-12-26T08:20:03.006Z,0
2016-12-26T08:21:03.343Z,0
2016-12-26T08:22:03.661Z,0
2016-12-26T08:23:03.392Z,0
2016-12-26T08:24:03.418Z,0
2016-12-26T08:25:03.130Z,0
2016-12-26T08:26:02.855Z,0
2016-12-26T08:27:03.183Z,0
2016-12-26T08:28:03.214Z,0
2016-12-26T08:29:03.256Z,0
2016-12-26T08:30:03.286Z,5
2016-12-26T08:31:03.302Z,0
2016-12-26T08:32:03.659Z,0
2016-12-26T08:33:04.291Z,0
2016-12-26T08:34:03.692Z,0
2016-12-26T08:35:03.726Z,0
2016-12-26T08:36:04.042Z,0
2016-12-26T08:37:03.787Z,0
2016-12-26T08:38:03.804Z,0
2016-12-26T08:39:03.828Z,5
2016-12-26T08:40:03.557Z,0
2016-12-26T08:41:03.578Z,0
2016-12-26T08:42:03.914Z,0
2016-12-26T08:43:04.239Z,0
2016-12-26T08:44:03.360Z,5
2016-12-26T08:45:04.316Z,5
2016-12-26T08:46:04.029Z,5
2016-12-26T08:47:03.754Z,5
2016-12-26T08:48:03.474Z,5
2016-12-26T08:49:03.499Z,5
2016-12-26T08:50:03.840Z,5
2016-12-26T08:51:03.873Z,5
2016-12-26T08:52:04.222Z,5
2016-12-26T08:53:03.622Z,5
2016-12-26T08:54:04.547Z,5
2016-12-26T08:55:04.284Z,5
2016-12-26T08:56:04.596Z,5
2016-12-26T08:57:04.333Z,5
2016-12-26T08:58:04.054Z,5
2016-12-26T08:59:04.390Z,5
2016-12-26T09:00:04.424Z,5
2016-12-26T09:01:04.452Z,5
2016-12-26T09:02:04.473Z,5
2016-12-26T09:03:04.506Z,5
2016-12-26T09:04:04.227Z,5
2016-12-26T09:05:04.567Z,5
2016-12-26T09:06:04.586Z,5
2016-12-26T09:07:04.920Z,5
2016-12-26T09:08:04.641Z,5
2016-12-26T09:09:04.355Z,5
2016-12-26T09:10:04.396Z,5
2016-12-26T09:11:04.728Z,5
2016-12-26T09:12:04.452Z,5
2016-12-26T09:13:04.817Z,10
2016-12-26T09:14:04.806Z,5
2016-12-26T09:15:05.451Z,5
2016-12-26T09:16:05.472Z,5
2016-12-26T09:17:04.892Z,5
2016-12-26T09:18:05.223Z,5
2016-12-26T09:19:05.258Z,5
2016-12-26T09:20:05.290Z,5
2016-12-26T09:21:05.009Z,5
2016-12-26T09:22:04.732Z,5
2016-12-26T09:23:05.072Z,5
2016-12-26T09:24:05.701Z,10
2016-12-26T09:25:05.418Z,5
2016-12-26T09:26:04.838Z,10
2016-12-26T09:27:04.559Z,10
2016-12-26T09:28:04.896Z,10
2016-12-26T09:29:05.229Z,10
2016-12-26T09:30:05.561Z,10
2016-12-26T09:31:05.578Z,10
2016-12-26T09:32:05.323Z,10
2016-12-26T09:33:05.044Z,10
2016-12-26T09:34:05.669Z,5
2016-12-26T09:35:05.382Z,5
2016-12-26T09:36:05.410Z,5
2016-12-26T09:37:05.442Z,5
2016-12-26T09:38:05.782Z,5
2016-12-26T09:39:05.512Z,5
2016-12-26T09:40:05.826Z,5
2016-12-26T09:41:04.962Z,5
2016-12-26T09:42:05.911Z,5
2016-12-26T09:43:05.627Z,5
2016-12-26T09:44:05.663Z,5
2016-12-26T09:45:05.965Z,5
2016-12-26T09:46:06.009Z,5
2016-12-26T09:47:05.717Z,5
2016-12-26T09:48:05.746Z,5
2016-12-26T09:49:06.089Z,5
2016-12-26T09:50:05.520Z,5
2016-12-26T09:51:05.537Z,5
2016-12-26T09:52:06.165Z,5
2016-12-26T09:53:05.902Z,5
2016-12-26T09:54:05.941Z,5
2016-12-26T09:55:05.342Z,5
2016-12-26T09:56:05.984Z,5
2016-12-26T09:57:05.705Z,5
2016-12-26T09:58:05.734Z,5
2016-12-26T09:59:06.379Z,10
2016-12-26T10:00:06.088Z,10
2016-12-26T10:01:06.128Z,10
2016-12-26T10:02:05.841Z,15
2016-12-26T10:03:05.565Z,10
2016-12-26T10:04:06.502Z,10
2016-12-26T10:05:05.623Z,10
2016-12-26T10:06:06.264Z,10
2016-12-26T10:07:05.676Z,10
2016-12-26T10:08:06.301Z,10
2016-12-26T10:09:06.350Z,15
2016-12-26T10:10:06.375Z,15
2016-12-26T10:11:06.419Z,15
2016-12-26T10:12:07.037Z,15
2016-12-26T10:13:06.140Z,15
2016-12-26T10:14:06.178Z,10
2016-12-26T10:15:05.902Z,15
2016-12-26T10:16:06.231Z,10
2016-12-26T10:17:06.263Z,10
2016-12-26T10:18:06.900Z,5
2016-12-26T10:19:06.633Z,5
2016-12-26T10:20:06.366Z,5
2016-12-26T10:21:06.375Z,5
2016-12-26T10:22:06.399Z,5
2016-12-26T10:23:06.722Z,5
2016-12-26T10:24:06.152Z,5
2016-12-26T10:25:06.485Z,5
2016-12-26T10:26:07.119Z,5
2016-12-26T10:27:07.159Z,10
2016-12-26T10:28:06.580Z,10
2016-12-26T10:29:06.902Z,10
2016-12-26T10:30:06.928Z,10
2016-12-26T10:31:06.646Z,10
2016-12-26T10:32:06.998Z,10
2016-12-26T10:33:07.321Z,15
2016-12-26T10:34:06.736Z,15
2016-12-26T10:35:06.769Z,15
2016-12-26T10:36:07.105Z,20
2016-12-26T10:37:07.417Z,15
2016-12-26T10:38:06.843Z,15
2016-12-26T10:39:07.773Z,15
2016-12-26T10:40:07.504Z,10
2016-12-26T10:41:07.228Z,15
2016-12-26T10:42:06.652Z,15
2016-12-26T10:43:07.298Z,10
2016-12-26T10:44:06.707Z,10
2016-12-26T10:45:07.334Z,10
2016-12-26T10:46:07.084Z,15
2016-12-26T10:47:07.392Z,15
2016-12-26T10:48:07.428Z,15
2016-12-26T10:49:07.751Z,15
2016-12-26T10:50:06.888Z,15
2016-12-26T10:51:07.507Z,10
2016-12-26T10:52:07.236Z,10
2016-12-26T10:53:07.573Z,15
2016-12-26T10:54:07.602Z,15
2016-12-26T10:55:07.919Z,15
2016-12-26T10:56:07.655Z,20
2016-12-26T10:57:07.673Z,20
2016-12-26T10:58:07.713Z,20
2016-12-26T10:59:07.737Z,20
2016-12-26T11:00:07.471Z,20
2016-12-26T11:01:07.191Z,20
2016-12-26T11:02:08.125Z,15
2016-12-26T11:03:08.148Z,15
2016-12-26T11:04:07.862Z,15
2016-12-26T11:05:07.898Z,10
2016-12-26T11:06:08.231Z,10
2016-12-26T11:07:07.955Z,10
2016-12-26T11:08:07.972Z,15
2016-12-26T11:09:08.309Z,15
2016-12-26T11:10:07.465Z,15
2016-12-26T11:11:08.666Z,10
2016-12-26T11:12:08.388Z,10
2016-12-26T11:13:07.807Z,10
2016-12-26T11:14:07.832Z,10
2016-12-26T11:15:08.477Z,15
2016-12-26T11:16:08.510Z,15
2016-12-26T11:17:08.539Z,15
2016-12-26T11:18:08.555Z,15
2016-12-26T11:19:08.612Z,10
2016-12-26T11:20:08.621Z,10
2016-12-26T11:21:08.033Z,15
2016-12-26T11:22:08.059Z,15
2016-12-26T11:23:08.415Z,15
2016-12-26T11:24:08.447Z,20
2016-12-26T11:25:08.741Z,15
2016-12-26T11:26:08.799Z,10
2016-12-26T11:27:09.133Z,10
2016-12-26T11:28:08.530Z,15
2016-12-26T11:29:08.872Z,20
2016-12-26T11:30:08.060Z,20
2016-12-26T11:31:08.312Z,20
2016-12-26T11:32:08.954Z,20
2016-12-26T11:33:08.691Z,25
2016-12-26T11:34:08.392Z,30
2016-12-26T11:35:08.744Z,25
2016-12-26T11:36:08.748Z,40
2016-12-26T11:37:08.189Z,30
2016-12-26T11:38:08.818Z,20
2016-12-26T11:39:09.136Z,20
2016-12-26T11:40:08.872Z,15
2016-12-26T11:41:09.196Z,20
2016-12-26T11:42:09.220Z,15
2016-12-26T11:43:08.723Z,20
2016-12-26T11:44:08.702Z,25
2016-12-26T11:45:08.765Z,20
2016-12-26T11:46:08.724Z,25
2016-12-26T11:47:09.099Z,25
2016-12-26T11:48:09.442Z,25
2016-12-26T11:49:09.422Z,25
2016-12-26T11:50:09.186Z,30
2016-12-26T11:51:09.512Z,30
2016-12-26T11:52:09.574Z,30
2016-12-26T11:53:09.267Z,20
2016-12-26T11:54:09.889Z,25
2016-12-26T11:55:09.622Z,20
2016-12-26T11:56:09.971Z,20
2016-12-26T11:57:09.648Z,25
2016-12-26T11:58:09.375Z,20
2016-12-26T11:59:09.713Z,25
2016-12-26T12:00:09.427Z,15
2016-12-26T12:01:08.839Z,25
2016-12-26T12:02:10.083Z,30
2016-12-26T12:03:09.196Z,40
2016-12-26T12:04:09.853Z,35
2016-12-26T12:05:10.166Z,35
2016-12-26T12:06:10.206Z,25
2016-12-26T12:07:09.917Z,15
2016-12-26T12:08:09.357Z,10
2016-12-26T12:09:09.989Z,10
2016-12-26T12:10:10.014Z,15
2016-12-26T12:11:09.735Z,15
2016-12-26T12:12:09.455Z,35
2016-12-26T12:13:09.484Z,45
2016-12-26T12:14:09.821Z,35
2016-12-26T12:15:09.841Z,30
2016-12-26T12:16:10.170Z,20
2016-12-26T12:17:09.595Z,20
2016-12-26T12:18:10.224Z,15
2016-12-26T12:19:10.554Z,20
2016-12-26T12:20:09.985Z,10
2016-12-26T12:21:10.610Z,10
2016-12-26T12:22:09.735Z,15
2016-12-26T12:23:10.060Z,15
2016-12-26T12:24:10.091Z,10
2016-12-26T12:25:09.809Z,10
2016-12-26T12:26:10.442Z,5
2016-12-26T12:27:10.473Z,5
2016-12-26T12:28:09.903Z,5
2016-12-26T12:29:10.851Z,5
2016-12-26T12:30:09.961Z,10
2016-12-26T12:31:10.590Z,5
2016-12-26T12:32:10.934Z,5
2016-12-26T12:33:10.655Z,5
2016-12-26T12:34:10.375Z,5
2016-12-26T12:35:10.952Z,10
2016-12-26T12:36:10.241Z,10
2016-12-26T12:37:11.015Z,5
2016-12-26T12:38:09.874Z,5
2016-12-26T12:39:10.876Z,5
2016-12-26T12:40:10.568Z,5
2016-12-26T12:41:10.562Z,5
2016-12-26T12:42:09.994Z,5
2016-12-26T12:43:10.935Z,5
2016-12-26T12:44:10.943Z,5
2016-12-26T12:45:10.371Z,5
2016-12-26T12:46:10.704Z,5
2016-12-26T12:47:11.026Z,5
2016-12-26T12:48:10.510Z,5
2016-12-26T12:49:11.099Z,10
2016-12-26T12:50:10.507Z,5
2016-12-26T12:51:11.148Z,10
2016-12-26T12:52:10.874Z,5
2016-12-26T12:53:10.910Z,5
2016-12-26T12:54:10.942Z,5
2016-12-26T12:55:11.271Z,5
2016-12-26T12:56:10.684Z,10
2016-12-26T12:57:11.012Z,10
2016-12-26T12:58:11.033Z,10
2016-12-26T12:59:11.370Z,10
2016-12-26T13:00:10.798Z,10
2016-12-26T13:01:10.818Z,10
2016-12-26T13:02:11.785Z,10
2016-12-26T13:03:11.174Z,10
2016-12-26T13:04:11.518Z,10
2016-12-26T13:05:11.246Z,5
2016-12-26T13:06:11.257Z,5
2016-12-26T13:07:11.603Z,5
2016-12-26T13:08:11.028Z,5
2016-12-26T13:09:11.043Z,5
2016-12-26T13:10:11.366Z,5
2016-12-26T13:11:11.095Z,10
2016-12-26T13:12:11.435Z,10
2016-12-26T13:13:11.152Z,5
2016-12-26T13:14:11.485Z,5
2016-12-26T13:15:11.814Z,5
2016-12-26T13:16:11.846Z,5
2016-12-26T13:17:11.263Z,5
2016-12-26T13:18:11.587Z,5
2016-12-26T13:19:11.324Z,5
2016-12-26T13:20:11.033Z,10
2016-12-26T13:21:11.705Z,10
2016-12-26T13:22:12.015Z,10
2016-12-26T13:23:12.035Z,15
2016-12-26T13:24:11.764Z,20
2016-12-26T13:25:12.116Z,10
2016-12-26T13:26:11.830Z,10
2016-12-26T13:27:12.167Z,5
2016-12-26T13:28:11.867Z,5
2016-12-26T13:29:11.600Z,5
2016-12-26T13:30:11.321Z,10
2016-12-26T13:31:11.962Z,10
2016-12-26T13:32:12.282Z,10
2016-12-26T13:33:12.023Z,10
2016-12-26T13:34:11.444Z,5
2016-12-26T13:35:12.368Z,5
2016-12-26T13:36:12.405Z,5
2016-12-26T13:37:12.126Z,5
2016-12-26T13:38:12.755Z,5
2016-12-26T13:39:12.180Z,0
2016-12-26T13:40:12.491Z,0
2016-12-26T13:41:11.920Z,5
2016-12-26T13:42:12.297Z,5
2016-12-26T13:43:12.906Z,5
2016-12-26T13:44:12.010Z,5
2016-12-26T13:45:12.047Z,5
2016-12-26T13:46:12.675Z,5
2016-12-26T13:47:12.413Z,0
2016-12-26T13:48:12.730Z,0
2016-12-26T13:49:13.067Z,0
2016-12-26T13:50:12.488Z,0
2016-12-26T13:51:13.108Z,5
2016-12-26T13:52:12.833Z,5
2016-12-26T13:53:12.257Z,0
2016-12-26T13:54:12.294Z,0
2016-12-26T13:55:12.307Z,5
2016-12-26T13:56:12.644Z,5
2016-12-26T13:57:12.397Z,0
2016-12-26T13:58:12.713Z,5
2016-12-26T13:59:12.458Z,5
2016-12-26T14:00:12.757Z,5
2016-12-26T14:01:13.083Z,5
2016-12-26T14:02:12.508Z,5
2016-12-26T14:03:12.852Z,5
2016-12-26T14:04:12.877Z,5
2016-12-26T14:05:12.898Z,5
2016-12-26T14:06:12.627Z,5
2016-12-26T14:07:12.657Z,5
2016-12-26T14:08:13.589Z,5
2016-12-26T14:09:12.730Z,5
2016-12-26T14:10:13.046Z,5
2016-12-26T14:11:13.376Z,10
2016-12-26T14:12:12.795Z,10
2016-12-26T14:13:13.420Z,10
2016-12-26T14:14:12.836Z,5
2016-12-26T14:15:13.173Z,5
2016-12-26T14:16:12.901Z,5
2016-12-26T14:17:13.571Z,5
2016-12-26T14:18:12.955Z,5
2016-12-26T14:19:13.599Z,5
2016-12-26T14:20:13.612Z,0
2016-12-26T14:21:13.341Z,0
2016-12-26T14:22:13.673Z,0
2016-12-26T14:23:13.383Z,0
2016-12-26T14:24:13.110Z,0
2016-12-26T14:25:13.147Z,0
2016-12-26T14:26:13.773Z,0
2016-12-26T14:27:12.900Z,0
2016-12-26T14:28:13.837Z,5
2016-12-26T14:29:13.557Z,5
2016-12-26T14:30:13.590Z,5
2016-12-26T14:31:13.610Z,5
2016-12-26T14:32:13.383Z,5
2016-12-26T14:33:13.352Z,0
2016-12-26T14:34:13.092Z,0
2016-12-26T14:35:13.409Z,0
2016-12-26T14:36:14.077Z,5
2016-12-26T14:37:14.087Z,5
2016-12-26T14:38:14.416Z,5
2016-12-26T14:39:14.448Z,5
2016-12-26T14:40:13.239Z,5
2016-12-26T14:41:13.576Z,5